nws-alerts: Checking more than four warning/county codes can delay the loading of your pages. You should use a cron job to get the data.
EllijayWeather Historical Data
Daily Summary for December 22, 2018 Units:  English    Metric   Both
Daily Weekly Monthly Yearly
  High: Low: Average:
Temperature: 54.0 °F 29.0 °F 37 °F
Dew Point: 37.0 °F 12.0 °F 25 °F
Humidity: 94% 40% 64%
Wind Speed: 6mph 0mph 0.6mph
Wind Gust: 7mph - -
Wind- - West
Pressure: 30.3 in 29.9 in -
Precipitation: 0.010 in    
 
 
Tabular Data for December 22, 2018
Time Temperature Dew Point Pressure Wind Wind Speed Wind Gust Humidity Rainfall Rate (Hourly)
00:04 38.0 °F 15.0 °F 29.9 in North 1 mph 2 mph 40% 0.000 in
00:09 38.0 °F 15.0 °F 29.9 in NE 1 mph 3 mph 40% 0.000 in
00:14 38.0 °F 15.0 °F 29.9 in NNW 1 mph 3 mph 40% 0.000 in
00:19 38.0 °F 15.0 °F 29.9 in NNW 1 mph 3 mph 40% 0.000 in
00:24 38.0 °F 15.0 °F 29.9 in WNW 4 mph 4 mph 40% 0.000 in
00:29 38.0 °F 15.0 °F 29.9 in NNW 3 mph 6 mph 40% 0.000 in
00:34 38.0 °F 15.0 °F 29.9 in WNW 4 mph 7 mph 40% 0.000 in
00:39 38.0 °F 15.0 °F 29.9 in ENE 3 mph 3 mph 40% 0.000 in
00:44 37.0 °F 16.0 °F 29.9 in NNE 4 mph 5 mph 41% 0.000 in
00:49 37.0 °F 16.0 °F 29.9 in NNW 3 mph 3 mph 41% 0.000 in
00:54 37.0 °F 16.0 °F 29.9 in North 2 mph 3 mph 41% 0.000 in
00:59 37.0 °F 16.0 °F 29.9 in North 1 mph 1 mph 41% 0.000 in
01:04 37.0 °F 16.0 °F 29.9 in Calm   1 mph 41% 0.000 in
01:09 37.0 °F 16.0 °F 29.9 in WNW 1 mph 2 mph 42% 0.000 in
01:14 37.0 °F 16.0 °F 29.9 in West 1 mph 2 mph 42% 0.000 in
01:19 37.0 °F 16.0 °F 29.9 in Calm   3 mph 42% 0.000 in
01:24 37.0 °F 16.0 °F 29.9 in Calm   3 mph 41% 0.000 in
01:29 37.0 °F 16.0 °F 29.9 in Calm   3 mph 41% 0.000 in
01:34 37.0 °F 16.0 °F 29.9 in NNW 2 mph 5 mph 41% 0.000 in
01:39 37.0 °F 16.0 °F 29.9 in West 2 mph 3 mph 41% 0.000 in
01:44 37.0 °F 16.0 °F 29.9 in NNW 1 mph 2 mph 41% 0.000 in
01:49 37.0 °F 16.0 °F 29.9 in Calm   1 mph 42% 0.000 in
01:54 37.0 °F 16.0 °F 29.9 in Calm     42% 0.000 in
01:59 37.0 °F 16.0 °F 29.9 in Calm   1 mph 42% 0.000 in
02:04 37.0 °F 16.0 °F 29.9 in Calm   2 mph 42% 0.000 in
02:09 37.0 °F 16.0 °F 29.9 in WNW 1 mph 3 mph 42% 0.000 in
02:14 37.0 °F 16.0 °F 29.9 in Calm   1 mph 42% 0.000 in
02:19 37.0 °F 16.0 °F 29.9 in Calm     42% 0.000 in
02:24 37.0 °F 16.0 °F 29.9 in West 1 mph 3 mph 42% 0.000 in
02:29 37.0 °F 15.0 °F 29.9 in Calm   1 mph 41% 0.000 in
02:34 37.0 °F 15.0 °F 29.9 in Calm     41% 0.000 in
02:39 37.0 °F 15.0 °F 29.9 in Calm   2 mph 41% 0.000 in
02:44 37.0 °F 15.0 °F 29.9 in Calm   2 mph 41% 0.000 in
02:49 37.0 °F 15.0 °F 30.0 in WNW 1 mph 1 mph 41% 0.000 in
02:54 37.0 °F 15.0 °F 30.0 in NW 2 mph 3 mph 41% 0.000 in
02:59 37.0 °F 15.0 °F 30.0 in NNW 1 mph 3 mph 41% 0.000 in
03:04 37.0 °F 15.0 °F 30.0 in Calm     41% 0.000 in
03:09 37.0 °F 15.0 °F 30.0 in NNW 1 mph 1 mph 41% 0.000 in
03:14 37.0 °F 15.0 °F 30.0 in Calm   1 mph 41% 0.000 in
03:19 37.0 °F 15.0 °F 30.0 in NW 2 mph 2 mph 41% 0.000 in
03:24 37.0 °F 15.0 °F 30.0 in Calm   1 mph 41% 0.010 in
03:29 37.0 °F 16.0 °F 30.0 in Calm   1 mph 42% 0.010 in
03:34 37.0 °F 16.0 °F 30.0 in WNW 1 mph 5 mph 42% 0.010 in
03:39 37.0 °F 16.0 °F 30.0 in Calm     42% 0.010 in
03:44 37.0 °F 17.0 °F 30.0 in Calm   1 mph 43% 0.010 in
03:49 37.0 °F 17.0 °F 30.0 in ENE 2 mph 4 mph 43% 0.010 in
03:54 37.0 °F 17.0 °F 30.0 in Calm   4 mph 45% 0.010 in
03:59 37.0 °F 17.0 °F 30.0 in WNW 1 mph 1 mph 45% 0.010 in
04:04 37.0 °F 18.0 °F 30.0 in North 2 mph 3 mph 46% 0.010 in
04:09 37.0 °F 18.0 °F 30.0 in NW 4 mph 4 mph 46% 0.010 in
04:14 37.0 °F 18.0 °F 30.0 in North 1 mph 1 mph 47% 0.010 in
04:19 37.0 °F 18.0 °F 30.0 in NW 1 mph 1 mph 47% 0.010 in
04:24 37.0 °F 19.0 °F 30.0 in NW 2 mph 5 mph 49% 0.010 in
04:29 36.0 °F 19.0 °F 30.0 in NW 2 mph 3 mph 50% 0.000 in
04:34 36.0 °F 20.0 °F 30.0 in WNW 2 mph 3 mph 51% 0.000 in
04:39 36.0 °F 21.0 °F 30.0 in West 1 mph 3 mph 53% 0.000 in
04:44 36.0 °F 22.0 °F 30.0 in North 2 mph 5 mph 56% 0.000 in
04:49 36.0 °F 23.0 °F 30.0 in Calm   5 mph 57% 0.000 in
04:54 36.0 °F 22.0 °F 30.0 in Calm     56% 0.000 in
04:59 36.0 °F 22.0 °F 30.0 in Calm   1 mph 56% 0.000 in
05:04 36.0 °F 23.0 °F 30.0 in Calm   2 mph 58% 0.000 in
05:09 36.0 °F 23.0 °F 30.0 in WNW 2 mph 3 mph 58% 0.000 in
05:14 36.0 °F 23.0 °F 30.0 in Calm   2 mph 58% 0.000 in
05:19 36.0 °F 22.0 °F 30.0 in Calm     56% 0.000 in
05:24 36.0 °F 21.0 °F 30.0 in Calm     54% 0.000 in
05:29 35.0 °F 20.0 °F 30.0 in NNW 1 mph 3 mph 52% 0.000 in
05:34 35.0 °F 19.0 °F 30.0 in NNW 1 mph 2 mph 51% 0.000 in
05:39 35.0 °F 19.0 °F 30.0 in Calm   2 mph 50% 0.000 in
05:44 35.0 °F 18.0 °F 30.0 in Calm     49% 0.000 in
05:49 35.0 °F 18.0 °F 30.0 in Calm     49% 0.000 in
05:54 35.0 °F 17.0 °F 30.0 in Calm   1 mph 48% 0.000 in
05:59 35.0 °F 17.0 °F 30.0 in NW 1 mph 1 mph 48% 0.000 in
06:04 34.0 °F 17.0 °F 30.0 in Calm     48% 0.000 in
06:09 34.0 °F 17.0 °F 30.0 in Calm   1 mph 48% 0.000 in
06:14 34.0 °F 17.0 °F 30.0 in Calm   1 mph 48% 0.000 in
06:19 34.0 °F 16.0 °F 30.0 in Calm     48% 0.000 in
06:24 34.0 °F 16.0 °F 30.1 in Calm   2 mph 48% 0.000 in
06:29 34.0 °F 16.0 °F 30.1 in Calm     48% 0.000 in
06:34 34.0 °F 16.0 °F 30.1 in Calm   2 mph 48% 0.000 in
06:39 33.0 °F 15.0 °F 30.1 in North 2 mph 2 mph 47% 0.000 in
06:44 33.0 °F 15.0 °F 30.1 in Calm   2 mph 47% 0.000 in
06:49 33.0 °F 15.0 °F 30.1 in Calm     47% 0.000 in
06:54 33.0 °F 15.0 °F 30.1 in Calm     47% 0.000 in
06:59 33.0 °F 15.0 °F 30.1 in Calm     46% 0.000 in
07:04 33.0 °F 15.0 °F 30.1 in Calm     46% 0.000 in
07:09 33.0 °F 15.0 °F 30.1 in Calm     46% 0.000 in
07:14 33.0 °F 14.0 °F 30.1 in Calm     46% 0.000 in
07:19 33.0 °F 14.0 °F 30.1 in Calm     46% 0.000 in
07:24 33.0 °F 14.0 °F 30.1 in Calm     46% 0.000 in
07:29 33.0 °F 14.0 °F 30.1 in Calm     45% 0.000 in
07:34 33.0 °F 14.0 °F 30.1 in Calm     45% 0.000 in
07:39 33.0 °F 14.0 °F 30.1 in Calm     45% 0.000 in
07:44 32.0 °F 13.0 °F 30.1 in Calm     44% 0.000 in
07:49 32.0 °F 13.0 °F 30.1 in Calm     44% 0.000 in
07:54 32.0 °F 13.0 °F 30.1 in Calm     44% 0.000 in
07:59 32.0 °F 13.0 °F 30.1 in Calm     44% 0.000 in
08:04 32.0 °F 13.0 °F 30.1 in Calm     44% 0.000 in
08:09 32.0 °F 12.0 °F 30.1 in Calm     43% 0.000 in
08:14 32.0 °F 12.0 °F 30.1 in Calm     43% 0.000 in
08:19 32.0 °F 12.0 °F 30.1 in Calm     43% 0.000 in
08:24 32.0 °F 12.0 °F 30.1 in Calm     43% 0.000 in
08:29 32.0 °F 12.0 °F 30.1 in Calm     43% 0.000 in
08:34 32.0 °F 12.0 °F 30.1 in Calm   1 mph 42% 0.000 in
08:39 33.0 °F 12.0 °F 30.1 in Calm     42% 0.000 in
08:44 33.0 °F 12.0 °F 30.1 in Calm     42% 0.000 in
08:49 33.0 °F 12.0 °F 30.1 in Calm     41% 0.000 in
08:54 33.0 °F 12.0 °F 30.1 in NW 3 mph 3 mph 41% 0.000 in
08:59 33.0 °F 12.0 °F 30.2 in WNW 1 mph 2 mph 41% 0.000 in
09:04 33.0 °F 12.0 °F 30.2 in WNW 2 mph 2 mph 41% 0.000 in
09:09 34.0 °F 12.0 °F 30.2 in Calm   1 mph 41% 0.000 in
09:14 34.0 °F 13.0 °F 30.2 in Calm     41% 0.000 in
09:19 34.0 °F 13.0 °F 30.2 in NW 1 mph 3 mph 41% 0.000 in
09:24 35.0 °F 13.0 °F 30.2 in Calm   1 mph 41% 0.000 in
09:29 35.0 °F 15.0 °F 30.2 in Calm     43% 0.000 in
09:34 35.0 °F 15.0 °F 30.2 in Calm     43% 0.000 in
09:39 35.0 °F 16.0 °F 30.2 in Calm     45% 0.000 in
09:44 35.0 °F 17.0 °F 30.2 in Calm   1 mph 47% 0.000 in
09:49 35.0 °F 18.0 °F 30.2 in NW 1 mph 1 mph 49% 0.000 in
09:54 36.0 °F 19.0 °F 30.2 in North 1 mph 2 mph 50% 0.000 in
09:59 36.0 °F 20.0 °F 30.2 in Calm     52% 0.000 in
10:04 37.0 °F 23.0 °F 30.2 in Calm   1 mph 57% 0.000 in
10:09 37.0 °F 25.0 °F 30.2 in WNW 4 mph 4 mph 61% 0.000 in
10:14 37.0 °F 26.0 °F 30.2 in NW 5 mph 5 mph 63% 0.000 in
10:19 37.0 °F 26.0 °F 30.2 in Calm     63% 0.000 in
10:24 37.0 °F 27.0 °F 30.2 in NE 2 mph 5 mph 66% 0.000 in
10:29 38.0 °F 28.0 °F 30.2 in Calm   3 mph 67% 0.000 in
10:34 38.0 °F 29.0 °F 30.2 in Calm   2 mph 70% 0.000 in
10:39 38.0 °F 30.0 °F 30.2 in WNW 1 mph 3 mph 72% 0.000 in
10:44 38.0 °F 30.0 °F 30.2 in Calm   2 mph 73% 0.000 in
10:49 38.0 °F 31.0 °F 30.2 in NW 1 mph 2 mph 74% 0.000 in
10:54 38.0 °F 31.0 °F 30.2 in NW 2 mph 2 mph 75% 0.000 in
10:59 39.0 °F 31.0 °F 30.2 in NNW 1 mph 3 mph 74% 0.000 in
11:04 39.0 °F 31.0 °F 30.2 in Calm     74% 0.000 in
11:09 39.0 °F 31.0 °F 30.2 in Calm     73% 0.000 in
11:14 39.0 °F 32.0 °F 30.2 in NW 1 mph 2 mph 74% 0.000 in
11:19 40.0 °F 32.0 °F 30.2 in WNW 5 mph 5 mph 75% 0.000 in
11:24 40.0 °F 33.0 °F 30.2 in NNW 3 mph 7 mph 75% 0.000 in
11:29 40.0 °F 33.0 °F 30.2 in Calm   7 mph 75% 0.000 in
11:34 40.0 °F 33.0 °F 30.2 in NW 2 mph 3 mph 75% 0.000 in
11:39 40.0 °F 33.0 °F 30.2 in NNW 4 mph 4 mph 76% 0.000 in
11:44 41.0 °F 33.0 °F 30.2 in NW 3 mph 5 mph 74% 0.000 in
11:49 41.0 °F 33.0 °F 30.2 in West 2 mph 5 mph 74% 0.000 in
11:54 41.0 °F 33.0 °F 30.2 in North 4 mph 7 mph 73% 0.000 in
11:59 41.0 °F 33.0 °F 30.2 in NNW 4 mph 7 mph 73% 0.000 in
12:04 41.0 °F 33.0 °F 30.2 in NNW 6 mph 6 mph 74% 0.000 in
12:09 41.0 °F 33.0 °F 30.2 in North 1 mph 2 mph 73% 0.000 in
12:14 42.0 °F 34.0 °F 30.2 in Calm   3 mph 74% 0.000 in
12:19 42.0 °F 34.0 °F 30.2 in Calm   3 mph 74% 0.000 in
12:24 42.0 °F 34.0 °F 30.2 in Calm   1 mph 74% 0.000 in
12:29 42.0 °F 34.0 °F 30.2 in Calm   1 mph 74% 0.000 in
12:34 42.0 °F 35.0 °F 30.2 in NW 4 mph 5 mph 76% 0.000 in
12:39 42.0 °F 34.0 °F 30.2 in NW 1 mph 4 mph 74% 0.000 in
12:44 42.0 °F 35.0 °F 30.2 in Calm   1 mph 74% 0.000 in
12:49 42.0 °F 35.0 °F 30.2 in NW 1 mph 3 mph 74% 0.000 in
12:54 42.0 °F 34.0 °F 30.2 in WNW 1 mph 3 mph 72% 0.000 in
12:59 43.0 °F 35.0 °F 30.2 in Calm   1 mph 73% 0.000 in
13:04 43.0 °F 35.0 °F 30.2 in NNW 2 mph 2 mph 73% 0.000 in
13:09 43.0 °F 35.0 °F 30.2 in NW 1 mph 2 mph 73% 0.000 in
13:14 43.0 °F 35.0 °F 30.2 in Calm   1 mph 72% 0.000 in
13:19 44.0 °F 35.0 °F 30.2 in NNW 3 mph 4 mph 72% 0.000 in
13:24 44.0 °F 35.0 °F 30.2 in NW 3 mph 4 mph 71% 0.000 in
13:29 44.0 °F 35.0 °F 30.2 in NW 3 mph 3 mph 70% 0.000 in
13:34 44.0 °F 35.0 °F 30.2 in NNW 2 mph 3 mph 71% 0.000 in
13:39 44.0 °F 35.0 °F 30.2 in Calm   3 mph 70% 0.000 in
13:44 44.0 °F 35.0 °F 30.2 in Calm     71% 0.000 in
13:49 44.0 °F 35.0 °F 30.2 in NW 4 mph 4 mph 70% 0.000 in
13:54 44.0 °F 35.0 °F 30.2 in Calm   1 mph 70% 0.000 in
13:59 45.0 °F 35.0 °F 30.2 in Calm   2 mph 70% 0.000 in
14:04 45.0 °F 35.0 °F 30.2 in NW 3 mph 3 mph 69% 0.000 in
14:09 45.0 °F 35.0 °F 30.2 in NW 1 mph 3 mph 68% 0.000 in
14:14 45.0 °F 35.0 °F 30.2 in NW 2 mph 2 mph 68% 0.000 in
14:19 45.0 °F 34.0 °F 30.2 in NNW 2 mph 3 mph 67% 0.000 in
14:24 45.0 °F 35.0 °F 30.2 in NW 2 mph 3 mph 69% 0.000 in
14:29 45.0 °F 35.0 °F 30.2 in NW 1 mph 3 mph 67% 0.000 in
14:34 45.0 °F 35.0 °F 30.2 in WNW 2 mph 3 mph 67% 0.000 in
14:39 45.0 °F 34.0 °F 30.2 in Calm   2 mph 65% 0.000 in
14:44 45.0 °F 35.0 °F 30.2 in Calm   1 mph 66% 0.000 in
14:49 45.0 °F 34.0 °F 30.2 in Calm   1 mph 65% 0.000 in
14:54 46.0 °F 35.0 °F 30.2 in Calm     66% 0.000 in
14:59 54.0 °F 37.0 °F 30.2 in Calm     67% 0.000 in
15:04 53.0 °F 33.0 °F 30.2 in Calm     51% 0.000 in
15:09 50.0 °F 34.0 °F 30.2 in Calm     57% 0.000 in
15:14 49.0 °F 34.0 °F 30.2 in Calm   1 mph 57% 0.000 in
15:19 48.0 °F 34.0 °F 30.2 in NW 2 mph 3 mph 60% 0.000 in
15:24 47.0 °F 32.0 °F 30.2 in North 3 mph 3 mph 55% 0.000 in
15:29 47.0 °F 33.0 °F 30.2 in Calm   1 mph 61% 0.000 in
15:34 46.0 °F 33.0 °F 30.2 in Calm     60% 0.000 in
15:39 46.0 °F 33.0 °F 30.2 in Calm     62% 0.000 in
15:44 46.0 °F 33.0 °F 30.2 in NNE 1 mph 1 mph 61% 0.000 in
15:49 46.0 °F 32.0 °F 30.2 in Calm     58% 0.000 in
15:54 45.0 °F 35.0 °F 30.2 in Calm   1 mph 66% 0.000 in
15:59 45.0 °F 34.0 °F 30.2 in Calm   1 mph 65% 0.000 in
16:04 45.0 °F 34.0 °F 30.2 in Calm     65% 0.000 in
16:09 45.0 °F 34.0 °F 30.2 in NNE 1 mph 1 mph 66% 0.000 in
16:14 45.0 °F 35.0 °F 30.2 in Calm     67% 0.000 in
16:19 45.0 °F 33.0 °F 30.2 in Calm     63% 0.000 in
16:24 44.0 °F 34.0 °F 30.2 in Calm     67% 0.000 in
16:29 44.0 °F 34.0 °F 30.2 in Calm     68% 0.000 in
16:34 44.0 °F 33.0 °F 30.2 in NNE 1 mph 1 mph 65% 0.000 in
16:39 44.0 °F 34.0 °F 30.2 in Calm   1 mph 70% 0.000 in
16:44 43.0 °F 34.0 °F 30.2 in Calm     70% 0.000 in
16:49 43.0 °F 35.0 °F 30.2 in Calm     72% 0.000 in
16:54 43.0 °F 34.0 °F 30.2 in Calm     72% 0.000 in
16:59 43.0 °F 36.0 °F 30.2 in North 1 mph 2 mph 76% 0.000 in
17:04 42.0 °F 34.0 °F 30.2 in North 1 mph 1 mph 72% 0.000 in
17:09 42.0 °F 33.0 °F 30.2 in Calm   1 mph 71% 0.000 in
17:14 42.0 °F 33.0 °F 30.2 in Calm     70% 0.000 in
17:19 42.0 °F 33.0 °F 30.2 in Calm     71% 0.000 in
17:24 42.0 °F 33.0 °F 30.2 in Calm     70% 0.000 in
17:29 42.0 °F 33.0 °F 30.2 in Calm     70% 0.000 in
17:34 41.0 °F 33.0 °F 30.2 in Calm     71% 0.000 in
17:39 41.0 °F 33.0 °F 30.2 in Calm     74% 0.000 in
17:44 41.0 °F 33.0 °F 30.2 in Calm     73% 0.000 in
17:49 41.0 °F 33.0 °F 30.2 in Calm     73% 0.000 in
17:54 40.0 °F 33.0 °F 30.2 in Calm     74% 0.000 in
17:59 40.0 °F 32.0 °F 30.2 in Calm     74% 0.000 in
18:04 40.0 °F 33.0 °F 30.2 in Calm     76% 0.000 in
18:09 39.0 °F 32.0 °F 30.2 in Calm     77% 0.000 in
18:14 39.0 °F 32.0 °F 30.2 in Calm     77% 0.000 in
18:19 39.0 °F 32.0 °F 30.2 in Calm     78% 0.000 in
18:24 38.0 °F 32.0 °F 30.2 in Calm     79% 0.000 in
18:29 38.0 °F 32.0 °F 30.2 in Calm     80% 0.000 in
18:34 37.0 °F 32.0 °F 30.2 in Calm     81% 0.000 in
18:39 37.0 °F 32.0 °F 30.2 in Calm     82% 0.000 in
18:44 37.0 °F 32.0 °F 30.2 in Calm     82% 0.000 in
18:49 36.0 °F 32.0 °F 30.2 in Calm     83% 0.000 in
18:54 36.0 °F 31.0 °F 30.2 in Calm     83% 0.000 in
18:58 36.0 °F 31.0 °F 30.2 in Calm     84% 0.000 in
19:04 34.0 °F 30.0 °F 30.2 in Calm     84% 0.000 in
19:09 34.0 °F 30.0 °F 30.2 in Calm     86% 0.000 in
19:14 34.0 °F 30.0 °F 30.2 in Calm     86% 0.000 in
19:19 34.0 °F 30.0 °F 30.2 in Calm     86% 0.000 in
19:24 33.0 °F 30.0 °F 30.2 in Calm     87% 0.000 in
19:29 33.0 °F 30.0 °F 30.2 in Calm     87% 0.000 in
19:34 33.0 °F 30.0 °F 30.2 in Calm     88% 0.000 in
19:39 33.0 °F 30.0 °F 30.2 in Calm     88% 0.000 in
19:44 33.0 °F 29.0 °F 30.2 in Calm     88% 0.000 in
19:49 33.0 °F 30.0 °F 30.2 in Calm     89% 0.000 in
19:54 32.0 °F 30.0 °F 30.2 in Calm     89% 0.000 in
19:59 32.0 °F 29.0 °F 30.2 in Calm     89% 0.000 in
20:04 32.0 °F 29.0 °F 30.2 in Calm     89% 0.000 in
20:09 32.0 °F 29.0 °F 30.2 in Calm     90% 0.000 in
20:14 32.0 °F 29.0 °F 30.2 in Calm     90% 0.000 in
20:19 32.0 °F 29.0 °F 30.2 in Calm     90% 0.000 in
20:24 32.0 °F 29.0 °F 30.2 in Calm     90% 0.000 in
20:29 31.0 °F 29.0 °F 30.2 in Calm     91% 0.000 in
20:34 31.0 °F 29.0 °F 30.2 in Calm     91% 0.000 in
20:39 31.0 °F 29.0 °F 30.2 in Calm     91% 0.000 in
20:44 31.0 °F 29.0 °F 30.2 in Calm     91% 0.000 in
20:49 31.0 °F 29.0 °F 30.2 in Calm     91% 0.000 in
20:54 31.0 °F 28.0 °F 30.2 in Calm     91% 0.000 in
20:59 31.0 °F 29.0 °F 30.2 in Calm     92% 0.000 in
21:04 31.0 °F 29.0 °F 30.2 in Calm     92% 0.000 in
21:09 31.0 °F 29.0 °F 30.2 in Calm     92% 0.000 in
21:14 30.0 °F 28.0 °F 30.2 in Calm     92% 0.000 in
21:19 30.0 °F 28.0 °F 30.2 in Calm     92% 0.000 in
21:24 30.0 °F 28.0 °F 30.2 in Calm     92% 0.000 in
21:29 30.0 °F 28.0 °F 30.2 in Calm     92% 0.000 in
21:34 30.0 °F 28.0 °F 30.2 in Calm     92% 0.000 in
21:39 30.0 °F 28.0 °F 30.3 in Calm     92% 0.000 in
21:44 30.0 °F 28.0 °F 30.3 in Calm     92% 0.000 in
21:49 30.0 °F 28.0 °F 30.3 in Calm     92% 0.000 in
21:54 30.0 °F 28.0 °F 30.3 in Calm     92% 0.000 in
21:59 30.0 °F 28.0 °F 30.3 in Calm     93% 0.000 in
22:04 29.0 °F 28.0 °F 30.3 in Calm     93% 0.000 in
22:09 29.0 °F 28.0 °F 30.3 in Calm     93% 0.000 in
22:14 29.0 °F 28.0 °F 30.3 in Calm     93% 0.000 in
22:19 29.0 °F 28.0 °F 30.3 in Calm     94% 0.000 in
22:24 29.0 °F 28.0 °F 30.3 in Calm     94% 0.000 in
22:29 29.0 °F 28.0 °F 30.3 in Calm     94% 0.000 in
22:34 29.0 °F 28.0 °F 30.3 in Calm     94% 0.000 in
22:39 30.0 °F 28.0 °F 30.3 in Calm     94% 0.000 in
22:44 30.0 °F 28.0 °F 30.3 in Calm     94% 0.000 in
22:49 30.0 °F 28.0 °F 30.3 in Calm     94% 0.000 in
22:54 30.0 °F 28.0 °F 30.3 in Calm     94% 0.000 in
22:59 30.0 °F 28.0 °F 30.3 in Calm     94% 0.000 in
23:04 30.0 °F 28.0 °F 30.3 in Calm     94% 0.000 in
23:09 30.0 °F 28.0 °F 30.3 in Calm     94% 0.000 in
23:14 30.0 °F 28.0 °F 30.3 in Calm     94% 0.000 in
23:19 30.0 °F 28.0 °F 30.3 in Calm     94% 0.000 in
23:24 30.0 °F 28.0 °F 30.3 in Calm     94% 0.000 in
23:29 30.0 °F 28.0 °F 30.3 in Calm     94% 0.000 in
23:34 30.0 °F 28.0 °F 30.3 in Calm     94% 0.000 in
23:39 29.0 °F 28.0 °F 30.3 in Calm     94% 0.000 in
23:44 29.0 °F 28.0 °F 30.3 in Calm     94% 0.000 in
23:49 29.0 °F 28.0 °F 30.3 in Calm     94% 0.000 in
23:54 29.0 °F 28.0 °F 30.3 in Calm     94% 0.000 in
23:59 29.0 °F 28.0 °F 30.3 in Calm     94% 0.000 in
East Ellijay Weather
Compliments of Weather Underground - 2 mb